createdAt,value
2019-03-27T00:02:18.704Z,99860.45
2019-03-27T00:04:47.169Z,99857.27
2019-03-27T00:07:15.651Z,99853.38
2019-03-27T00:09:44.113Z,99863.25
2019-03-27T00:12:12.606Z,99864.92
2019-03-27T00:14:41.070Z,99863.97
2019-03-27T00:17:09.549Z,99869.74
2019-03-27T00:19:38.012Z,99868.72
2019-03-27T00:22:06.566Z,99871.95
2019-03-27T00:24:35.024Z,99873.20
2019-03-27T00:27:03.516Z,99871.41
2019-03-27T00:29:31.985Z,99872.70
2019-03-27T00:32:00.469Z,99864.05
2019-03-27T00:34:29.002Z,99873.02
2019-03-27T00:36:57.493Z,99873.86
2019-03-27T00:39:25.961Z,99873.14
2019-03-27T00:41:54.443Z,99879.77
2019-03-27T00:44:22.913Z,99874.89
2019-03-27T00:46:51.404Z,99886.56
2019-03-27T00:49:19.875Z,99881.09
2019-03-27T00:51:48.369Z,99879.91
2019-03-27T00:54:16.836Z,99877.77
2019-03-27T00:56:45.336Z,99878.88
2019-03-27T00:59:13.866Z,99875.69
2019-03-27T01:01:42.353Z,99890.45
2019-03-27T01:04:10.819Z,99886.78
2019-03-27T01:06:39.309Z,99884.94
2019-03-27T01:09:07.772Z,99886.38
2019-03-27T01:11:36.270Z,99886.77
2019-03-27T01:14:04.804Z,99886.20
2019-03-27T01:16:33.300Z,99883.45
2019-03-27T01:19:01.760Z,99888.09
2019-03-27T01:21:30.251Z,99883.57
2019-03-27T01:23:58.716Z,99886.78
2019-03-27T01:26:27.246Z,99886.16
2019-03-27T01:28:55.670Z,99884.55
2019-03-27T01:31:24.167Z,99888.48
2019-03-27T01:33:52.642Z,99890.26
2019-03-27T01:36:21.130Z,99890.26
2019-03-27T01:38:49.596Z,99892.98
2019-03-27T01:41:18.088Z,99897.83
2019-03-27T01:43:46.555Z,99893.25
2019-03-27T01:46:15.050Z,99889.06
2019-03-27T01:48:43.520Z,99889.06
2019-03-27T01:51:12.010Z,99892.63
2019-03-27T01:53:40.482Z,99889.40
2019-03-27T01:56:08.976Z,99895.45
2019-03-27T01:58:37.450Z,99903.72
2019-03-27T02:01:05.981Z,99905.52
2019-03-27T02:03:34.478Z,99912.86
2019-03-27T02:06:02.954Z,99902.44
2019-03-27T02:08:31.923Z,99903.33
2019-03-27T02:11:00.394Z,99905.45
2019-03-27T02:13:28.885Z,99907.16
2019-03-27T02:16:06.803Z,99907.16
2019-03-27T02:18:27.575Z,99903.91
2019-03-27T02:20:56.040Z,99905.78
2019-03-27T02:23:24.538Z,99905.73
2019-03-27T02:25:53.003Z,99914.67
2019-03-27T02:28:21.500Z,99911.30
2019-03-27T02:30:49.970Z,99913.71
2019-03-27T02:33:18.468Z,99911.63
2019-03-27T02:35:46.945Z,99914.05
2019-03-27T02:38:15.443Z,99914.05
2019-03-27T02:40:43.913Z,99913.91
2019-03-27T02:43:12.414Z,99923.02
2019-03-27T02:45:40.895Z,99920.44
2019-03-27T02:48:09.399Z,99920.44
2019-03-27T02:50:37.865Z,99921.33
2019-03-27T02:53:06.367Z,99923.73
2019-03-27T02:55:34.840Z,99926.45
2019-03-27T02:58:03.342Z,99930.09
2019-03-27T03:00:32.090Z,99925.75
2019-03-27T03:03:00.593Z,99941.30
2019-03-27T03:05:29.058Z,99934.38
2019-03-27T03:07:57.557Z,99941.67
2019-03-27T03:10:26.038Z,99941.55
2019-03-27T03:12:54.536Z,99938.70
2019-03-27T03:15:27.476Z,99947.44
2019-03-27T03:17:55.982Z,99949.34
2019-03-27T03:20:24.445Z,99950.30
2019-03-27T03:22:52.948Z,99950.30
2019-03-27T03:25:21.426Z,99943.11
2019-03-27T03:27:49.921Z,99943.11
2019-03-27T03:30:18.463Z,99951.08
2019-03-27T03:32:46.959Z,99952.23
2019-03-27T03:35:15.565Z,99951.08
2019-03-27T03:37:44.057Z,99951.08
2019-03-27T03:40:13.870Z,99947.09
2019-03-27T03:42:42.364Z,99944.83
2019-03-27T03:45:11.437Z,99948.88
2019-03-27T03:47:39.947Z,99953.59
2019-03-27T03:50:10.305Z,99957.78
2019-03-27T03:52:39.066Z,99955.25
2019-03-27T03:55:07.672Z,99958.53
2019-03-27T03:57:37.453Z,99959.41
2019-03-27T04:00:07.956Z,99959.97
2019-03-27T04:02:37.521Z,99961.77
2019-03-27T04:05:07.336Z,99974.70
2019-03-27T04:07:35.830Z,99974.70
2019-03-27T04:10:05.342Z,99969.46
2019-03-27T04:12:33.834Z,99980.30
2019-03-27T04:15:02.326Z,99978.78
2019-03-27T04:17:30.820Z,99978.78
2019-03-27T04:19:59.308Z,99983.61
2019-03-27T04:22:27.790Z,99975.69
2019-03-27T04:24:56.261Z,99977.63
2019-03-27T04:27:24.759Z,99976.30
2019-03-27T04:29:53.214Z,99976.30
2019-03-27T04:32:21.729Z,99981.52
2019-03-27T04:34:50.187Z,99979.03
2019-03-27T04:37:18.654Z,99981.27
2019-03-27T04:39:47.173Z,99982.76
2019-03-27T04:42:15.617Z,99982.76
2019-03-27T04:44:44.116Z,99988.07
2019-03-27T04:47:12.599Z,99983.73
2019-03-27T04:49:41.083Z,99990.69
2019-03-27T04:52:09.553Z,99999.22
2019-03-27T04:54:38.055Z,99999.22
2019-03-27T04:57:06.518Z,99992.94
2019-03-27T04:59:35.024Z,100002.06
2019-03-27T05:02:06.493Z,100008.53
2019-03-27T05:04:33.729Z,100002.19
2019-03-27T05:07:02.207Z,100009.83
2019-03-27T05:09:30.704Z,100015.03
2019-03-27T05:11:59.448Z,100015.03
2019-03-27T05:14:27.948Z,100018.25
2019-03-27T05:16:56.495Z,100022.39
2019-03-27T05:19:24.988Z,100022.39
2019-03-27T05:21:53.466Z,100021.80
2019-03-27T05:24:21.959Z,100021.80
2019-03-27T05:26:50.434Z,100032.34
2019-03-27T05:29:18.952Z,100029.01
2019-03-27T05:31:47.425Z,100028.35
2019-03-27T05:34:15.934Z,100032.79
2019-03-27T05:36:44.429Z,100032.72
2019-03-27T05:39:14.544Z,100017.91
2019-03-27T05:41:43.287Z,100032.80
2019-03-27T05:44:11.778Z,100041.22
2019-03-27T05:46:40.251Z,100041.39
2019-03-27T05:49:08.751Z,100042.51
2019-03-27T05:51:37.233Z,100040.51
2019-03-27T05:54:05.726Z,100032.84
2019-03-27T05:56:34.208Z,100043.20
2019-03-27T05:59:02.706Z,100043.20
2019-03-27T06:01:31.180Z,100047.23
2019-03-27T06:03:59.694Z,100054.89
2019-03-27T06:06:28.174Z,100056.00
2019-03-27T06:08:56.675Z,100059.52
2019-03-27T06:11:25.154Z,100062.78
2019-03-27T06:13:53.658Z,100062.83
2019-03-27T06:16:22.129Z,100065.38
2019-03-27T06:18:50.636Z,100060.40
2019-03-27T06:21:19.116Z,100066.36
2019-03-27T06:23:47.615Z,100067.55
2019-03-27T06:26:16.084Z,100059.13
2019-03-27T06:28:44.578Z,100058.59
2019-03-27T06:31:13.050Z,100059.46
2019-03-27T06:33:41.551Z,100057.41
2019-03-27T06:36:10.094Z,100068.78
2019-03-27T06:38:38.591Z,100075.14
2019-03-27T06:41:07.288Z,100079.38
2019-03-27T06:43:35.782Z,100073.16
2019-03-27T06:46:04.335Z,100095.27
2019-03-27T06:48:32.830Z,100095.27
2019-03-27T06:51:01.303Z,100096.50
2019-03-27T06:53:29.806Z,100100.17
2019-03-27T06:55:58.275Z,100104.01
2019-03-27T06:58:26.747Z,100102.63
2019-03-27T07:00:55.253Z,100092.59
2019-03-27T07:03:23.731Z,100099.61
2019-03-27T07:05:52.224Z,100100.28
2019-03-27T07:08:20.698Z,100098.03
2019-03-27T07:10:49.194Z,100106.02
2019-03-27T07:13:17.674Z,100099.10
2019-03-27T07:15:46.213Z,100110.55
2019-03-27T07:18:14.675Z,100113.59
2019-03-27T07:20:43.176Z,100107.94
2019-03-27T07:23:11.656Z,100111.99
2019-03-27T07:25:40.158Z,100117.28
2019-03-27T07:28:08.611Z,100115.25
2019-03-27T07:30:37.115Z,100114.78
2019-03-27T07:33:05.595Z,100125.55
2019-03-27T07:35:34.087Z,100128.77
2019-03-27T07:38:02.562Z,100137.52
2019-03-27T07:40:31.050Z,100132.01
2019-03-27T07:42:59.518Z,100130.77
2019-03-27T07:45:28.029Z,100134.81
2019-03-27T07:47:56.502Z,100133.08
2019-03-27T07:50:25.001Z,100134.06
2019-03-27T07:52:53.467Z,100125.72
2019-03-27T07:55:21.967Z,100131.31
2019-03-27T07:57:50.424Z,100131.48
2019-03-27T08:00:21.929Z,100129.26
2019-03-27T08:02:50.489Z,100136.79
2019-03-27T08:05:18.981Z,100141.08
2019-03-27T08:07:47.444Z,100139.43
2019-03-27T08:10:16.074Z,100126.62
2019-03-27T08:12:44.545Z,100129.61
2019-03-27T08:15:13.592Z,100127.52
2019-03-27T08:17:42.119Z,100129.10
2019-03-27T08:20:11.266Z,100130.25
2019-03-27T08:22:39.734Z,100129.78
2019-03-27T08:25:09.171Z,100138.61
2019-03-27T08:27:37.641Z,100143.81
2019-03-27T08:30:09.176Z,100140.58
2019-03-27T08:32:37.718Z,100146.44
2019-03-27T08:35:08.056Z,100147.08
2019-03-27T08:37:36.680Z,100139.59
2019-03-27T08:40:07.484Z,100137.30
2019-03-27T08:42:36.863Z,100139.52
2019-03-27T08:45:08.800Z,100139.05
2019-03-27T08:47:37.268Z,100138.62
2019-03-27T08:50:06.598Z,100136.94
2019-03-27T08:52:35.060Z,100142.78
2019-03-27T08:55:05.085Z,100143.42
2019-03-27T08:57:33.552Z,100145.08
2019-03-27T09:00:02.832Z,100138.33
2019-03-27T09:02:31.432Z,100142.63
2019-03-27T09:04:59.925Z,100145.81
2019-03-27T09:07:28.404Z,100150.06
2019-03-27T09:09:56.898Z,100154.01
2019-03-27T09:12:25.360Z,100156.80
2019-03-27T09:14:53.854Z,100153.48
2019-03-27T09:17:22.322Z,100160.23
2019-03-27T09:19:50.813Z,100151.82
2019-03-27T09:22:19.276Z,100163.54
2019-03-27T09:24:47.774Z,100150.12
2019-03-27T09:27:16.244Z,100159.72
2019-03-27T09:29:44.740Z,100158.19
2019-03-27T09:32:13.216Z,100156.17
2019-03-27T09:34:41.704Z,100156.27
2019-03-27T09:37:10.181Z,100154.39
2019-03-27T09:39:38.638Z,100152.22
2019-03-27T09:42:07.141Z,100151.05
2019-03-27T09:44:35.614Z,100156.30
2019-03-27T09:47:04.106Z,100148.25
2019-03-27T09:49:32.576Z,100155.63
2019-03-27T09:52:01.070Z,100159.19
2019-03-27T09:54:29.540Z,100154.09
2019-03-27T09:56:58.031Z,100160.70
2019-03-27T09:59:26.506Z,100157.03
2019-03-27T10:01:55.016Z,100156.77
2019-03-27T10:04:23.481Z,100160.52
2019-03-27T10:06:51.971Z,100161.68
2019-03-27T10:09:20.442Z,100153.28
2019-03-27T10:11:48.936Z,100161.41
2019-03-27T10:14:17.402Z,100160.67
2019-03-27T10:16:45.894Z,100161.55
2019-03-27T10:19:14.368Z,100164.07
2019-03-27T10:21:42.859Z,100167.23
2019-03-27T10:24:11.331Z,100170.70
2019-03-27T10:26:42.508Z,100167.60
2019-03-27T10:29:10.020Z,100164.98
2019-03-27T10:31:39.651Z,100165.14
2019-03-27T10:34:08.124Z,100161.97
2019-03-27T10:36:36.630Z,100163.56
2019-03-27T10:39:07.384Z,100163.27
2019-03-27T10:41:35.881Z,100156.94
2019-03-27T10:44:04.424Z,100163.01
2019-03-27T10:46:32.923Z,100161.07
2019-03-27T10:49:01.384Z,100161.76
2019-03-27T10:51:29.882Z,100161.48
2019-03-27T10:53:58.350Z,100170.41
2019-03-27T10:56:26.847Z,100167.73
2019-03-27T10:58:55.322Z,100168.92
2019-03-27T11:01:23.807Z,100171.44
2019-03-27T11:03:52.283Z,100172.62
2019-03-27T11:06:20.769Z,100178.16
2019-03-27T11:08:49.235Z,100174.23
2019-03-27T11:11:17.736Z,100173.00
2019-03-27T11:13:46.202Z,100169.55
2019-03-27T11:16:14.695Z,100174.81
2019-03-27T11:18:43.167Z,100171.54
2019-03-27T11:21:11.660Z,100185.56
2019-03-27T11:23:40.131Z,100179.89
2019-03-27T11:26:08.639Z,100170.42
2019-03-27T11:28:37.095Z,100174.50
2019-03-27T11:31:05.667Z,100176.80
2019-03-27T11:33:34.195Z,100176.11
2019-03-27T11:36:02.665Z,100173.81
2019-03-27T11:38:31.123Z,100180.33
2019-03-27T11:40:59.629Z,100185.09
2019-03-27T11:43:28.099Z,100183.76
2019-03-27T11:45:56.592Z,100182.31
2019-03-27T11:48:25.066Z,100184.12
2019-03-27T11:50:53.561Z,100182.34
2019-03-27T11:53:22.030Z,100184.94
2019-03-27T11:55:50.527Z,100183.95
2019-03-27T11:58:18.998Z,100189.53
2019-03-27T12:00:54.492Z,100185.42
2019-03-27T12:03:17.685Z,100187.56
2019-03-27T12:05:46.157Z,100185.42
2019-03-27T12:08:14.650Z,100185.94
2019-03-27T12:10:43.133Z,100187.56
2019-03-27T12:13:11.637Z,100189.69
2019-03-27T12:15:41.741Z,100187.56
2019-03-27T12:18:11.486Z,100193.77
2019-03-27T12:20:40.130Z,100184.95
2019-03-27T12:23:08.692Z,100179.37
2019-03-27T12:25:37.258Z,100181.62
2019-03-27T12:28:05.900Z,100184.86
2019-03-27T12:30:34.436Z,100182.31
2019-03-27T12:33:04.596Z,100181.64
2019-03-27T12:35:33.075Z,100181.14
2019-03-27T12:38:04.262Z,100182.57
2019-03-27T12:40:31.792Z,100186.27
2019-03-27T12:43:00.266Z,100182.20
2019-03-27T12:45:28.805Z,100189.61
2019-03-27T12:47:57.323Z,100185.17
2019-03-27T12:50:25.807Z,100185.81
2019-03-27T12:52:54.299Z,100182.23
2019-03-27T12:55:22.780Z,100185.47
2019-03-27T12:57:51.282Z,100181.24
2019-03-27T13:00:19.976Z,100181.92
2019-03-27T13:02:48.538Z,100173.47
2019-03-27T13:05:17.011Z,100178.68
2019-03-27T13:07:50.165Z,100181.12
2019-03-27T13:10:15.776Z,100178.65
2019-03-27T13:12:44.334Z,100176.77
2019-03-27T13:15:12.945Z,100178.08
2019-03-27T13:17:42.304Z,100177.41
2019-03-27T13:20:11.527Z,100176.08
2019-03-27T13:22:40.005Z,100180.98
2019-03-27T13:25:09.425Z,100182.63
2019-03-27T13:27:38.349Z,100177.40
2019-03-27T13:30:08.467Z,100172.49
2019-03-27T13:32:36.962Z,100176.05
2019-03-27T13:35:07.078Z,100171.14
2019-03-27T13:37:35.637Z,100171.69
2019-03-27T13:40:08.357Z,100161.41
2019-03-27T13:42:36.855Z,100168.53
2019-03-27T13:45:06.827Z,100172.04
2019-03-27T13:47:35.593Z,100169.72
2019-03-27T13:50:06.782Z,100163.71
2019-03-27T13:52:35.278Z,100174.72
2019-03-27T13:55:04.787Z,100174.08
2019-03-27T13:57:33.294Z,100173.94
2019-03-27T14:00:01.760Z,100173.63
2019-03-27T14:02:30.261Z,100166.94
2019-03-27T14:04:58.759Z,100165.47
2019-03-27T14:07:27.250Z,100168.39
2019-03-27T14:09:55.727Z,100163.45
2019-03-27T14:12:24.221Z,100163.89
2019-03-27T14:14:52.703Z,100166.76
2019-03-27T14:17:21.197Z,100163.97
2019-03-27T14:19:49.674Z,100161.39
2019-03-27T14:22:18.245Z,100162.81
2019-03-27T14:24:46.717Z,100165.61
2019-03-27T14:27:15.220Z,100167.14
2019-03-27T14:29:44.889Z,100166.27
2019-03-27T14:32:13.773Z,100163.33
2019-03-27T14:34:42.417Z,100156.03
2019-03-27T14:37:11.008Z,100150.08
2019-03-27T14:39:39.471Z,100152.53
2019-03-27T14:42:08.039Z,100149.74
2019-03-27T14:44:36.588Z,100151.50
2019-03-27T14:47:05.129Z,100144.29
2019-03-27T14:49:33.625Z,100153.11
2019-03-27T14:52:08.277Z,100156.41
2019-03-27T14:54:32.336Z,100152.15
2019-03-27T14:57:00.802Z,100158.40
2019-03-27T14:59:29.397Z,100157.20
2019-03-27T15:01:57.868Z,100159.80
2019-03-27T15:04:26.360Z,100162.25
2019-03-27T15:06:55.033Z,100166.27
2019-03-27T15:09:23.696Z,100162.63
2019-03-27T15:11:52.185Z,100170.00
2019-03-27T15:14:20.678Z,100164.31
2019-03-27T15:16:49.148Z,100168.22
2019-03-27T15:19:17.643Z,100170.84
2019-03-27T15:21:46.117Z,100169.00
2019-03-27T15:24:14.616Z,100174.46
2019-03-27T15:26:43.088Z,100170.38
2019-03-27T15:29:11.579Z,100171.32
2019-03-27T15:31:40.058Z,100173.09
2019-03-27T15:34:08.550Z,100173.44
2019-03-27T15:36:37.024Z,100174.59
2019-03-27T15:39:07.062Z,100170.16
2019-03-27T15:41:35.534Z,100170.14
2019-03-27T15:44:04.037Z,100164.52
2019-03-27T15:46:32.574Z,100167.44
2019-03-27T15:49:01.060Z,100165.27
2019-03-27T15:51:29.539Z,100160.61
2019-03-27T15:53:58.125Z,100161.86
2019-03-27T15:56:26.602Z,100157.38
2019-03-27T15:58:56.348Z,100153.78
2019-03-27T16:01:24.955Z,100149.58
2019-03-27T16:03:53.450Z,100149.33
2019-03-27T16:06:22.048Z,100148.81
2019-03-27T16:08:50.555Z,100145.78
2019-03-27T16:11:19.122Z,100151.80
2019-03-27T16:13:47.616Z,100154.50
2019-03-27T16:16:16.155Z,100146.07
2019-03-27T16:18:44.717Z,100151.80
2019-03-27T16:21:13.190Z,100149.50
2019-03-27T16:23:41.690Z,100156.66
2019-03-27T16:26:10.158Z,100159.67
2019-03-27T16:28:38.658Z,100163.13
2019-03-27T16:31:07.127Z,100166.58
2019-03-27T16:33:35.628Z,100161.43
2019-03-27T16:36:04.104Z,100160.67
2019-03-27T16:38:32.607Z,100165.80
2019-03-27T16:41:01.087Z,100170.45
2019-03-27T16:43:29.589Z,100167.83
2019-03-27T16:45:58.058Z,100168.19
2019-03-27T16:48:26.548Z,100170.47
2019-03-27T16:50:55.024Z,100172.47
2019-03-27T16:53:23.524Z,100176.41
2019-03-27T16:55:52.143Z,100174.75
2019-03-27T16:58:20.646Z,100180.30
2019-03-27T17:00:49.120Z,100173.95
2019-03-27T17:03:17.690Z,100184.75
2019-03-27T17:05:53.927Z,100187.85
2019-03-27T17:08:16.544Z,100192.91
2019-03-27T17:10:45.083Z,100194.70
2019-03-27T17:13:13.566Z,100201.09
2019-03-27T17:15:42.067Z,100198.32
2019-03-27T17:18:10.551Z,100198.45
2019-03-27T17:20:39.140Z,100196.17
2019-03-27T17:23:18.173Z,100188.84
2019-03-27T17:25:38.102Z,100190.14
2019-03-27T17:28:06.625Z,100192.09
2019-03-27T17:30:35.201Z,100187.39
2019-03-27T17:33:05.401Z,100189.02
2019-03-27T17:35:33.924Z,100188.55
2019-03-27T17:38:02.466Z,100194.09
2019-03-27T17:40:31.065Z,100195.39
2019-03-27T17:42:59.629Z,100206.83
2019-03-27T17:45:28.136Z,100204.55
2019-03-27T17:47:56.628Z,100202.09
2019-03-27T17:50:25.128Z,100206.01
2019-03-27T17:52:53.605Z,100213.05
2019-03-27T17:55:22.124Z,100216.61
2019-03-27T17:57:50.642Z,100210.44
2019-03-27T18:00:23.845Z,100221.52
2019-03-27T18:02:52.324Z,100215.66
2019-03-27T18:05:20.835Z,100216.30
2019-03-27T18:07:49.322Z,100218.59
2019-03-27T18:10:17.840Z,100222.20
2019-03-27T18:12:46.317Z,100220.89
2019-03-27T18:15:14.985Z,100222.51
2019-03-27T18:17:43.453Z,100223.66
2019-03-27T18:20:12.203Z,100219.90
2019-03-27T18:22:40.856Z,100221.05
2019-03-27T18:25:09.710Z,100230.03
2019-03-27T18:27:38.341Z,100226.27
2019-03-27T18:30:08.084Z,100230.19
2019-03-27T18:32:36.792Z,100228.70
2019-03-27T18:35:08.012Z,100232.60
2019-03-27T18:37:36.597Z,100239.44
2019-03-27T18:40:07.029Z,100248.56
2019-03-27T18:42:35.509Z,100244.48
2019-03-27T18:45:06.180Z,100246.28
2019-03-27T18:47:36.425Z,100243.01
2019-03-27T18:50:09.288Z,100242.67
2019-03-27T18:52:37.762Z,100241.05
2019-03-27T18:55:07.890Z,100248.56
2019-03-27T18:57:36.368Z,100240.42
2019-03-27T19:00:07.174Z,100241.09
2019-03-27T19:02:35.722Z,100240.42
2019-03-27T19:05:08.451Z,100240.91
2019-03-27T19:07:36.919Z,100236.84
2019-03-27T19:10:06.939Z,100233.90
2019-03-27T19:12:35.419Z,100237.83
2019-03-27T19:15:06.273Z,100236.69
2019-03-27T19:17:34.755Z,100234.22
2019-03-27T19:20:04.664Z,100230.33
2019-03-27T19:22:33.120Z,100233.60
2019-03-27T19:25:01.633Z,100238.97
2019-03-27T19:27:30.122Z,100235.84
2019-03-27T19:29:58.697Z,100237.66
2019-03-27T19:32:27.274Z,100235.52
2019-03-27T19:34:55.780Z,100232.59
2019-03-27T19:37:24.248Z,100220.53
2019-03-27T19:39:52.766Z,100228.03
2019-03-27T19:42:21.245Z,100227.69
2019-03-27T19:44:51.397Z,100230.98
2019-03-27T19:47:19.883Z,100238.98
2019-03-27T19:49:48.387Z,100231.64
2019-03-27T19:52:16.867Z,100228.05
2019-03-27T19:54:45.400Z,100227.06
2019-03-27T19:57:13.910Z,100231.62
2019-03-27T19:59:42.403Z,100229.31
2019-03-27T20:02:11.615Z,100232.90
2019-03-27T20:04:40.266Z,100230.98
2019-03-27T20:07:08.802Z,100235.87
2019-03-27T20:09:37.310Z,100238.02
2019-03-27T20:12:05.803Z,100236.23
2019-03-27T20:14:34.293Z,100243.70
2019-03-27T20:17:02.806Z,100242.09
2019-03-27T20:19:31.695Z,100249.44
2019-03-27T20:22:00.207Z,100254.81
2019-03-27T20:24:40.522Z,100252.20
2019-03-27T20:27:00.561Z,100255.81
2019-03-27T20:29:29.098Z,100255.80
2019-03-27T20:31:57.623Z,100262.91
2019-03-27T20:34:26.121Z,100253.47
2019-03-27T20:36:54.625Z,100256.77
2019-03-27T20:39:23.187Z,100258.39
2019-03-27T20:41:51.728Z,100260.48
2019-03-27T20:44:20.220Z,100257.09
2019-03-27T20:46:48.739Z,100262.31
2019-03-27T20:49:17.225Z,100255.45
2019-03-27T20:51:45.731Z,100253.02
2019-03-27T20:54:14.339Z,100254.66
2019-03-27T20:56:42.875Z,100257.27
2019-03-27T20:59:11.838Z,100254.82
2019-03-27T21:01:40.341Z,100251.89
2019-03-27T21:04:08.929Z,100255.15
2019-03-27T21:06:37.441Z,100248.77
2019-03-27T21:09:06.412Z,100249.27
2019-03-27T21:11:34.963Z,100254.49
2019-03-27T21:14:03.489Z,100252.69
2019-03-27T21:16:34.504Z,100254.51
2019-03-27T21:19:03.070Z,100251.38
2019-03-27T21:21:31.595Z,100248.42
2019-03-27T21:24:00.072Z,100253.33
2019-03-27T21:26:28.614Z,100251.53
2019-03-27T21:28:57.140Z,100249.89
2019-03-27T21:31:25.656Z,100254.47
2019-03-27T21:33:57.526Z,100256.91
2019-03-27T21:36:24.455Z,100258.06
2019-03-27T21:38:54.373Z,100256.78
2019-03-27T21:41:22.888Z,100259.39
2019-03-27T21:43:52.137Z,100252.20
2019-03-27T21:46:20.639Z,100249.27
2019-03-27T21:48:49.125Z,100258.05
2019-03-27T21:51:17.628Z,100255.45
2019-03-27T21:53:50.632Z,100261.14
2019-03-27T21:56:16.346Z,100256.76
2019-03-27T21:58:44.833Z,100263.60
2019-03-27T22:01:13.341Z,100253.81
2019-03-27T22:03:41.815Z,100260.99
2019-03-27T22:06:10.457Z,100258.84
2019-03-27T22:08:38.940Z,100259.53
2019-03-27T22:11:07.445Z,100256.56
2019-03-27T22:13:35.922Z,100249.27
2019-03-27T22:16:04.511Z,100254.30
2019-03-27T22:18:32.988Z,100250.86
2019-03-27T22:21:01.495Z,100248.55
2019-03-27T22:23:29.971Z,100247.08
2019-03-27T22:25:58.489Z,100251.34
2019-03-27T22:28:26.965Z,100250.37
2019-03-27T22:30:55.479Z,100254.14
2019-03-27T22:33:23.961Z,100245.64
2019-03-27T22:35:52.478Z,100249.39
2019-03-27T22:38:20.958Z,100258.53
2019-03-27T22:40:49.486Z,100261.63
2019-03-27T22:43:17.972Z,100258.98
2019-03-27T22:45:46.423Z,100258.38
2019-03-27T22:48:14.937Z,100267.19
2019-03-27T22:50:43.420Z,100263.60
2019-03-27T22:53:11.941Z,100268.15
2019-03-27T22:55:49.531Z,100263.91
2019-03-27T22:58:13.048Z,100266.86
2019-03-27T23:00:48.042Z,100260.03
2019-03-27T23:03:18.481Z,100263.97
2019-03-27T23:05:46.870Z,100257.23
2019-03-27T23:08:15.436Z,100258.42
2019-03-27T23:10:43.926Z,100255.80
2019-03-27T23:13:12.492Z,100256.93
2019-03-27T23:15:41.040Z,100258.91
2019-03-27T23:18:09.539Z,100255.47
2019-03-27T23:20:38.168Z,100260.36
2019-03-27T23:23:06.690Z,100262.16
2019-03-27T23:25:35.167Z,100260.70
2019-03-27T23:28:03.674Z,100262.98
2019-03-27T23:30:32.213Z,100253.84
2019-03-27T23:33:00.715Z,100255.80
2019-03-27T23:35:29.195Z,100251.36
2019-03-27T23:37:57.696Z,100255.45
2019-03-27T23:40:26.198Z,100256.75
2019-03-27T23:42:54.694Z,100254.49
2019-03-27T23:45:23.168Z,100255.14
2019-03-27T23:47:51.669Z,100245.35
2019-03-27T23:50:20.145Z,100243.41
2019-03-27T23:52:48.660Z,100242.73
2019-03-27T23:55:17.136Z,100243.23
2019-03-27T23:57:45.642Z,100244.70
